sensor_id;sensor_type;location;lat;lon;timestamp;P1;durP1;ratioP1;P2;durP2;ratioP2
53145;SDS011;39042;53.150;5.898;2023-06-14T00:01:36;3.77;;;1.17;;
53145;SDS011;39042;53.150;5.898;2023-06-14T00:04:03;4.90;;;1.20;;
53145;SDS011;39042;53.150;5.898;2023-06-14T00:06:34;2.55;;;0.95;;
53145;SDS011;39042;53.150;5.898;2023-06-14T00:08:59;3.63;;;0.98;;
53145;SDS011;39042;53.150;5.898;2023-06-14T00:11:25;3.57;;;0.97;;
53145;SDS011;39042;53.150;5.898;2023-06-14T00:13:52;6.57;;;1.40;;
53145;SDS011;39042;53.150;5.898;2023-06-14T00:16:18;6.07;;;1.15;;
53145;SDS011;39042;53.150;5.898;2023-06-14T00:18:44;3.08;;;1.00;;
53145;SDS011;39042;53.150;5.898;2023-06-14T00:21:11;2.47;;;0.93;;
53145;SDS011;39042;53.150;5.898;2023-06-14T00:23:37;8.52;;;1.45;;
53145;SDS011;39042;53.150;5.898;2023-06-14T00:26:03;3.38;;;0.88;;
53145;SDS011;39042;53.150;5.898;2023-06-14T00:28:29;3.42;;;1.17;;
53145;SDS011;39042;53.150;5.898;2023-06-14T00:30:55;4.83;;;1.20;;
53145;SDS011;39042;53.150;5.898;2023-06-14T00:33:20;2.10;;;1.17;;
53145;SDS011;39042;53.150;5.898;2023-06-14T00:35:46;2.95;;;1.08;;
53145;SDS011;39042;53.150;5.898;2023-06-14T00:38:12;3.07;;;0.87;;
53145;SDS011;39042;53.150;5.898;2023-06-14T00:40:39;5.85;;;1.13;;
53145;SDS011;39042;53.150;5.898;2023-06-14T00:43:05;2.03;;;0.80;;
53145;SDS011;39042;53.150;5.898;2023-06-14T00:45:31;3.93;;;1.00;;
53145;SDS011;39042;53.150;5.898;2023-06-14T00:48:01;4.07;;;0.88;;
53145;SDS011;39042;53.150;5.898;2023-06-14T00:50:28;4.03;;;0.98;;
53145;SDS011;39042;53.150;5.898;2023-06-14T00:52:57;4.95;;;1.13;;
53145;SDS011;39042;53.150;5.898;2023-06-14T00:57:49;4.15;;;0.95;;
53145;SDS011;39042;53.150;5.898;2023-06-14T01:02:42;3.47;;;0.82;;
53145;SDS011;39042;53.150;5.898;2023-06-14T01:05:08;3.13;;;0.85;;
53145;SDS011;39042;53.150;5.898;2023-06-14T01:15:59;6.80;;;0.80;;
53145;SDS011;39042;53.150;5.898;2023-06-14T01:18:25;2.65;;;1.08;;
53145;SDS011;39042;53.150;5.898;2023-06-14T01:20:55;4.07;;;1.00;;
53145;SDS011;39042;53.150;5.898;2023-06-14T01:23:24;3.63;;;0.90;;
53145;SDS011;39042;53.150;5.898;2023-06-14T01:25:58;3.42;;;0.90;;
53145;SDS011;39042;53.150;5.898;2023-06-14T01:28:25;2.40;;;0.98;;
53145;SDS011;39042;53.150;5.898;2023-06-14T01:30:58;4.35;;;0.90;;
53145;SDS011;39042;53.150;5.898;2023-06-14T01:33:28;2.97;;;0.80;;
53145;SDS011;39042;53.150;5.898;2023-06-14T01:35:57;2.17;;;0.80;;
53145;SDS011;39042;53.150;5.898;2023-06-14T01:40:50;6.03;;;0.93;;
53145;SDS011;39042;53.150;5.898;2023-06-14T01:43:19;2.63;;;1.15;;
53145;SDS011;39042;53.150;5.898;2023-06-14T01:45:46;4.68;;;0.95;;
53145;SDS011;39042;53.150;5.898;2023-06-14T01:48:14;2.88;;;1.00;;
53145;SDS011;39042;53.150;5.898;2023-06-14T01:50:40;5.53;;;1.00;;
53145;SDS011;39042;53.150;5.898;2023-06-14T01:53:09;5.13;;;1.27;;
53145;SDS011;39042;53.150;5.898;2023-06-14T01:55:36;3.53;;;0.93;;
53145;SDS011;39042;53.150;5.898;2023-06-14T01:58:05;3.72;;;1.00;;
53145;SDS011;39042;53.150;5.898;2023-06-14T02:00:31;2.95;;;0.82;;
53145;SDS011;39042;53.150;5.898;2023-06-14T02:02:57;4.03;;;1.00;;
53145;SDS011;39042;53.150;5.898;2023-06-14T02:05:25;2.33;;;0.88;;
53145;SDS011;39042;53.150;5.898;2023-06-14T02:07:51;2.60;;;0.75;;
53145;SDS011;39042;53.150;5.898;2023-06-14T02:10:18;1.73;;;0.60;;
53145;SDS011;39042;53.150;5.898;2023-06-14T02:12:46;3.47;;;0.75;;
53145;SDS011;39042;53.150;5.898;2023-06-14T02:15:12;2.17;;;0.73;;
53145;SDS011;39042;53.150;5.898;2023-06-14T02:17:45;2.42;;;0.80;;
53145;SDS011;39042;53.150;5.898;2023-06-14T02:20:16;4.38;;;1.08;;
53145;SDS011;39042;53.150;5.898;2023-06-14T02:22:42;3.78;;;1.00;;
53145;SDS011;39042;53.150;5.898;2023-06-14T02:25:09;5.97;;;0.80;;
53145;SDS011;39042;53.150;5.898;2023-06-14T02:27:35;3.88;;;0.93;;
53145;SDS011;39042;53.150;5.898;2023-06-14T02:30:02;3.33;;;0.90;;
53145;SDS011;39042;53.150;5.898;2023-06-14T02:32:31;2.58;;;0.75;;
53145;SDS011;39042;53.150;5.898;2023-06-14T02:34:59;4.75;;;1.25;;
53145;SDS011;39042;53.150;5.898;2023-06-14T02:37:25;7.97;;;1.13;;
53145;SDS011;39042;53.150;5.898;2023-06-14T02:39:52;5.40;;;1.13;;
53145;SDS011;39042;53.150;5.898;2023-06-14T02:42:18;2.67;;;0.80;;
53145;SDS011;39042;53.150;5.898;2023-06-14T02:44:43;4.20;;;0.87;;
53145;SDS011;39042;53.150;5.898;2023-06-14T02:47:11;5.70;;;1.02;;
53145;SDS011;39042;53.150;5.898;2023-06-14T02:49:37;2.63;;;0.90;;
53145;SDS011;39042;53.150;5.898;2023-06-14T02:52:03;3.93;;;1.07;;
53145;SDS011;39042;53.150;5.898;2023-06-14T02:54:30;2.42;;;0.98;;
53145;SDS011;39042;53.150;5.898;2023-06-14T02:56:57;2.53;;;1.05;;
53145;SDS011;39042;53.150;5.898;2023-06-14T02:59:23;5.33;;;1.60;;
53145;SDS011;39042;53.150;5.898;2023-06-14T03:01:52;2.90;;;1.00;;
53145;SDS011;39042;53.150;5.898;2023-06-14T03:04:18;6.65;;;1.10;;
53145;SDS011;39042;53.150;5.898;2023-06-14T03:06:44;2.88;;;1.15;;
53145;SDS011;39042;53.150;5.898;2023-06-14T03:09:16;2.67;;;0.98;;
53145;SDS011;39042;53.150;5.898;2023-06-14T03:11:42;2.42;;;0.98;;
53145;SDS011;39042;53.150;5.898;2023-06-14T03:14:09;6.80;;;1.65;;
53145;SDS011;39042;53.150;5.898;2023-06-14T03:16:37;4.68;;;1.48;;
53145;SDS011;39042;53.150;5.898;2023-06-14T03:19:03;3.67;;;1.17;;
53145;SDS011;39042;53.150;5.898;2023-06-14T03:21:31;2.92;;;1.35;;
53145;SDS011;39042;53.150;5.898;2023-06-14T03:24:00;6.28;;;1.10;;
53145;SDS011;39042;53.150;5.898;2023-06-14T03:28:55;3.53;;;1.02;;
53145;SDS011;39042;53.150;5.898;2023-06-14T03:31:22;4.82;;;1.27;;
53145;SDS011;39042;53.150;5.898;2023-06-14T03:33:49;3.05;;;1.05;;
53145;SDS011;39042;53.150;5.898;2023-06-14T03:36:15;4.07;;;1.52;;
53145;SDS011;39042;53.150;5.898;2023-06-14T03:38:43;3.00;;;1.30;;
53145;SDS011;39042;53.150;5.898;2023-06-14T03:43:35;4.85;;;1.30;;
53145;SDS011;39042;53.150;5.898;2023-06-14T03:46:01;5.38;;;1.35;;
53145;SDS011;39042;53.150;5.898;2023-06-14T03:48:29;3.10;;;1.05;;
53145;SDS011;39042;53.150;5.898;2023-06-14T03:50:55;3.20;;;0.90;;
53145;SDS011;39042;53.150;5.898;2023-06-14T03:53:22;4.32;;;1.52;;
53145;SDS011;39042;53.150;5.898;2023-06-14T03:55:53;5.97;;;1.38;;
53145;SDS011;39042;53.150;5.898;2023-06-14T03:58:22;4.07;;;1.40;;
53145;SDS011;39042;53.150;5.898;2023-06-14T04:00:48;3.35;;;1.23;;
53145;SDS011;39042;53.150;5.898;2023-06-14T04:03:14;4.25;;;1.55;;
53145;SDS011;39042;53.150;5.898;2023-06-14T04:05:41;2.90;;;1.13;;
53145;SDS011;39042;53.150;5.898;2023-06-14T04:08:08;2.70;;;1.48;;
53145;SDS011;39042;53.150;5.898;2023-06-14T04:10:34;1.77;;;1.10;;
53145;SDS011;39042;53.150;5.898;2023-06-14T04:13:00;3.17;;;1.08;;
53145;SDS011;39042;53.150;5.898;2023-06-14T04:15:26;2.92;;;1.00;;
53145;SDS011;39042;53.150;5.898;2023-06-14T04:17:56;3.17;;;0.90;;
53145;SDS011;39042;53.150;5.898;2023-06-14T04:20:23;3.75;;;1.08;;
53145;SDS011;39042;53.150;5.898;2023-06-14T04:22:52;2.78;;;1.27;;
53145;SDS011;39042;53.150;5.898;2023-06-14T04:25:18;5.13;;;1.40;;
53145;SDS011;39042;53.150;5.898;2023-06-14T04:27:46;2.25;;;1.15;;
53145;SDS011;39042;53.150;5.898;2023-06-14T04:30:12;8.15;;;1.30;;
53145;SDS011;39042;53.150;5.898;2023-06-14T04:32:47;2.92;;;1.08;;
53145;SDS011;39042;53.150;5.898;2023-06-14T04:35:15;2.78;;;1.30;;
53145;SDS011;39042;53.150;5.898;2023-06-14T04:37:43;3.08;;;1.38;;
53145;SDS011;39042;53.150;5.898;2023-06-14T04:40:11;5.68;;;1.20;;
53145;SDS011;39042;53.150;5.898;2023-06-14T04:42:38;6.22;;;1.45;;
53145;SDS011;39042;53.150;5.898;2023-06-14T04:45:07;3.75;;;1.33;;
53145;SDS011;39042;53.150;5.898;2023-06-14T04:47:35;1.83;;;1.15;;
53145;SDS011;39042;53.150;5.898;2023-06-14T04:50:05;3.25;;;1.35;;
53145;SDS011;39042;53.150;5.898;2023-06-14T04:52:31;2.60;;;1.48;;
53145;SDS011;39042;53.150;5.898;2023-06-14T04:54:59;3.67;;;1.58;;
53145;SDS011;39042;53.150;5.898;2023-06-14T04:57:26;4.13;;;1.33;;
53145;SDS011;39042;53.150;5.898;2023-06-14T04:59:55;2.72;;;0.95;;
53145;SDS011;39042;53.150;5.898;2023-06-14T05:02:24;2.80;;;1.35;;
53145;SDS011;39042;53.150;5.898;2023-06-14T05:04:51;4.75;;;1.50;;
53145;SDS011;39042;53.150;5.898;2023-06-14T05:07:19;2.72;;;1.45;;
53145;SDS011;39042;53.150;5.898;2023-06-14T05:09:49;2.85;;;1.38;;
53145;SDS011;39042;53.150;5.898;2023-06-14T05:12:15;4.10;;;1.10;;
53145;SDS011;39042;53.150;5.898;2023-06-14T05:14:44;2.42;;;1.38;;
53145;SDS011;39042;53.150;5.898;2023-06-14T05:17:11;2.67;;;1.20;;
53145;SDS011;39042;53.150;5.898;2023-06-14T05:19:37;4.90;;;1.60;;
53145;SDS011;39042;53.150;5.898;2023-06-14T05:22:03;2.88;;;1.55;;
53145;SDS011;39042;53.150;5.898;2023-06-14T05:24:29;5.57;;;2.05;;
53145;SDS011;39042;53.150;5.898;2023-06-14T05:26:57;4.00;;;1.60;;
53145;SDS011;39042;53.150;5.898;2023-06-14T05:29:23;6.07;;;1.83;;
53145;SDS011;39042;53.150;5.898;2023-06-14T05:31:49;3.85;;;2.05;;
53145;SDS011;39042;53.150;5.898;2023-06-14T05:34:15;3.83;;;1.45;;
53145;SDS011;39042;53.150;5.898;2023-06-14T05:36:41;5.95;;;1.80;;
53145;SDS011;39042;53.150;5.898;2023-06-14T05:39:06;4.20;;;1.60;;
53145;SDS011;39042;53.150;5.898;2023-06-14T05:41:33;2.78;;;1.60;;
53145;SDS011;39042;53.150;5.898;2023-06-14T05:43:59;4.55;;;1.80;;
53145;SDS011;39042;53.150;5.898;2023-06-14T05:46:25;3.63;;;1.95;;
53145;SDS011;39042;53.150;5.898;2023-06-14T05:48:51;5.68;;;1.70;;
53145;SDS011;39042;53.150;5.898;2023-06-14T05:51:18;7.25;;;1.65;;
53145;SDS011;39042;53.150;5.898;2023-06-14T05:53:44;7.55;;;1.90;;
53145;SDS011;39042;53.150;5.898;2023-06-14T05:56:11;8.52;;;2.28;;
53145;SDS011;39042;53.150;5.898;2023-06-14T05:58:37;3.50;;;1.60;;
53145;SDS011;39042;53.150;5.898;2023-06-14T06:01:03;3.35;;;1.70;;
53145;SDS011;39042;53.150;5.898;2023-06-14T06:03:29;4.03;;;1.90;;
53145;SDS011;39042;53.150;5.898;2023-06-14T06:05:55;4.93;;;1.80;;
53145;SDS011;39042;53.150;5.898;2023-06-14T06:08:21;4.20;;;1.53;;
53145;SDS011;39042;53.150;5.898;2023-06-14T06:10:47;4.97;;;1.57;;
53145;SDS011;39042;53.150;5.898;2023-06-14T06:13:12;4.68;;;1.83;;
53145;SDS011;39042;53.150;5.898;2023-06-14T06:15:38;5.38;;;1.60;;
53145;SDS011;39042;53.150;5.898;2023-06-14T06:18:04;3.70;;;1.50;;
53145;SDS011;39042;53.150;5.898;2023-06-14T06:20:30;2.40;;;1.35;;
53145;SDS011;39042;53.150;5.898;2023-06-14T06:22:57;5.22;;;1.80;;
53145;SDS011;39042;53.150;5.898;2023-06-14T06:25:23;3.75;;;1.35;;
53145;SDS011;39042;53.150;5.898;2023-06-14T06:27:51;2.55;;;1.23;;
53145;SDS011;39042;53.150;5.898;2023-06-14T06:30:19;3.60;;;1.55;;
53145;SDS011;39042;53.150;5.898;2023-06-14T06:32:45;3.78;;;1.60;;
53145;SDS011;39042;53.150;5.898;2023-06-14T06:35:12;3.33;;;1.30;;
53145;SDS011;39042;53.150;5.898;2023-06-14T06:37:39;3.05;;;1.30;;
53145;SDS011;39042;53.150;5.898;2023-06-14T06:40:06;4.35;;;1.40;;
53145;SDS011;39042;53.150;5.898;2023-06-14T06:42:33;4.60;;;1.38;;
53145;SDS011;39042;53.150;5.898;2023-06-14T06:45:02;3.42;;;1.20;;
53145;SDS011;39042;53.150;5.898;2023-06-14T06:49:54;2.70;;;1.33;;
53145;SDS011;39042;53.150;5.898;2023-06-14T06:52:20;3.67;;;1.23;;
53145;SDS011;39042;53.150;5.898;2023-06-14T06:54:46;2.42;;;1.25;;
53145;SDS011;39042;53.150;5.898;2023-06-14T06:57:12;1.52;;;0.95;;
53145;SDS011;39042;53.150;5.898;2023-06-14T07:02:04;2.42;;;1.40;;
53145;SDS011;39042;53.150;5.898;2023-06-14T07:06:56;5.18;;;1.38;;
53145;SDS011;39042;53.150;5.898;2023-06-14T07:09:22;4.05;;;1.63;;
53145;SDS011;39042;53.150;5.898;2023-06-14T07:11:49;4.03;;;1.15;;
53145;SDS011;39042;53.150;5.898;2023-06-14T07:14:15;2.65;;;1.60;;
53145;SDS011;39042;53.150;5.898;2023-06-14T07:16:41;6.07;;;1.52;;
53145;SDS011;39042;53.150;5.898;2023-06-14T07:21:34;1.92;;;0.80;;
53145;SDS011;39042;53.150;5.898;2023-06-14T07:24:03;4.13;;;1.70;;
53145;SDS011;39042;53.150;5.898;2023-06-14T07:26:31;2.67;;;1.02;;
53145;SDS011;39042;53.150;5.898;2023-06-14T07:28:57;4.57;;;1.50;;
53145;SDS011;39042;53.150;5.898;2023-06-14T07:31:23;2.78;;;1.08;;
53145;SDS011;39042;53.150;5.898;2023-06-14T07:33:49;1.35;;;0.90;;
53145;SDS011;39042;53.150;5.898;2023-06-14T07:36:14;5.80;;;1.13;;
53145;SDS011;39042;53.150;5.898;2023-06-14T07:38:40;2.72;;;0.90;;
53145;SDS011;39042;53.150;5.898;2023-06-14T07:41:06;2.35;;;0.90;;
53145;SDS011;39042;53.150;5.898;2023-06-14T07:43:32;4.47;;;0.95;;
53145;SDS011;39042;53.150;5.898;2023-06-14T07:45:58;3.60;;;0.85;;
53145;SDS011;39042;53.150;5.898;2023-06-14T07:48:24;4.13;;;1.10;;
53145;SDS011;39042;53.150;5.898;2023-06-14T07:50:50;2.70;;;1.27;;
53145;SDS011;39042;53.150;5.898;2023-06-14T07:53:16;1.25;;;0.50;;
53145;SDS011;39042;53.150;5.898;2023-06-14T07:55:42;2.60;;;1.02;;
53145;SDS011;39042;53.150;5.898;2023-06-14T07:58:08;4.20;;;0.70;;
53145;SDS011;39042;53.150;5.898;2023-06-14T08:00:35;2.65;;;0.80;;
53145;SDS011;39042;53.150;5.898;2023-06-14T08:03:01;3.15;;;0.95;;
53145;SDS011;39042;53.150;5.898;2023-06-14T08:05:28;2.60;;;1.10;;
53145;SDS011;39042;53.150;5.898;2023-06-14T08:07:54;2.05;;;1.10;;
53145;SDS011;39042;53.150;5.898;2023-06-14T08:10:20;2.60;;;1.00;;
53145;SDS011;39042;53.150;5.898;2023-06-14T08:12:47;1.92;;;1.10;;
53145;SDS011;39042;53.150;5.898;2023-06-14T08:15:16;2.75;;;1.13;;
53145;SDS011;39042;53.150;5.898;2023-06-14T08:20:11;2.13;;;0.73;;
53145;SDS011;39042;53.150;5.898;2023-06-14T08:22:38;2.83;;;1.33;;
53145;SDS011;39042;53.150;5.898;2023-06-14T08:25:07;4.72;;;0.98;;
53145;SDS011;39042;53.150;5.898;2023-06-14T08:27:34;3.22;;;1.10;;
53145;SDS011;39042;53.150;5.898;2023-06-14T08:30:00;1.77;;;0.75;;
53145;SDS011;39042;53.150;5.898;2023-06-14T08:34:52;4.18;;;1.10;;
53145;SDS011;39042;53.150;5.898;2023-06-14T08:37:18;2.80;;;1.00;;
53145;SDS011;39042;53.150;5.898;2023-06-14T08:39:44;4.35;;;1.63;;
53145;SDS011;39042;53.150;5.898;2023-06-14T08:42:10;3.25;;;1.10;;
53145;SDS011;39042;53.150;5.898;2023-06-14T08:44:37;4.38;;;1.17;;
53145;SDS011;39042;53.150;5.898;2023-06-14T08:47:03;2.60;;;0.80;;
53145;SDS011;39042;53.150;5.898;2023-06-14T08:49:31;2.58;;;0.85;;
53145;SDS011;39042;53.150;5.898;2023-06-14T08:54:27;3.05;;;1.08;;
53145;SDS011;39042;53.150;5.898;2023-06-14T08:56:57;6.65;;;0.82;;
53145;SDS011;39042;53.150;5.898;2023-06-14T08:59:24;3.33;;;0.75;;
53145;SDS011;39042;53.150;5.898;2023-06-14T09:01:53;3.83;;;0.95;;
53145;SDS011;39042;53.150;5.898;2023-06-14T09:06:47;4.17;;;1.10;;
53145;SDS011;39042;53.150;5.898;2023-06-14T09:09:24;4.85;;;1.50;;
53145;SDS011;39042;53.150;5.898;2023-06-14T09:11:51;4.88;;;0.90;;
53145;SDS011;39042;53.150;5.898;2023-06-14T09:14:21;3.35;;;0.90;;
53145;SDS011;39042;53.150;5.898;2023-06-14T09:16:52;3.05;;;1.00;;
53145;SDS011;39042;53.150;5.898;2023-06-14T09:19:25;3.97;;;1.15;;
53145;SDS011;39042;53.150;5.898;2023-06-14T09:21:52;1.85;;;0.80;;
53145;SDS011;39042;53.150;5.898;2023-06-14T09:24:18;1.50;;;0.93;;
53145;SDS011;39042;53.150;5.898;2023-06-14T09:26:47;4.15;;;1.02;;
53145;SDS011;39042;53.150;5.898;2023-06-14T09:29:16;3.65;;;1.08;;
53145;SDS011;39042;53.150;5.898;2023-06-14T09:31:43;5.05;;;0.90;;
53145;SDS011;39042;53.150;5.898;2023-06-14T09:34:11;3.92;;;0.68;;
53145;SDS011;39042;53.150;5.898;2023-06-14T09:36:36;4.43;;;0.82;;
53145;SDS011;39042;53.150;5.898;2023-06-14T09:39:07;2.38;;;0.80;;
53145;SDS011;39042;53.150;5.898;2023-06-14T09:44:01;3.83;;;0.98;;
53145;SDS011;39042;53.150;5.898;2023-06-14T09:46:29;1.60;;;0.50;;
53145;SDS011;39042;53.150;5.898;2023-06-14T09:48:56;3.38;;;0.95;;
53145;SDS011;39042;53.150;5.898;2023-06-14T09:51:22;4.72;;;0.80;;
53145;SDS011;39042;53.150;5.898;2023-06-14T09:53:49;9.18;;;1.42;;
53145;SDS011;39042;53.150;5.898;2023-06-14T09:59:01;3.83;;;1.10;;
53145;SDS011;39042;53.150;5.898;2023-06-14T10:01:30;1.85;;;0.80;;
53145;SDS011;39042;53.150;5.898;2023-06-14T10:04:01;2.35;;;1.20;;
53145;SDS011;39042;53.150;5.898;2023-06-14T10:06:29;1.10;;;0.60;;
53145;SDS011;39042;53.150;5.898;2023-06-14T10:09:02;3.22;;;0.65;;
53145;SDS011;39042;53.150;5.898;2023-06-14T10:11:30;3.95;;;0.77;;
53145;SDS011;39042;53.150;5.898;2023-06-14T10:13:57;1.85;;;0.70;;
53145;SDS011;39042;53.150;5.898;2023-06-14T10:16:45;2.03;;;0.95;;
53145;SDS011;39042;53.150;5.898;2023-06-14T10:19:40;2.78;;;0.73;;
53145;SDS011;39042;53.150;5.898;2023-06-14T10:22:14;3.42;;;0.98;;
53145;SDS011;39042;53.150;5.898;2023-06-14T10:24:44;2.35;;;0.98;;
53145;SDS011;39042;53.150;5.898;2023-06-14T10:27:13;2.95;;;0.80;;
53145;SDS011;39042;53.150;5.898;2023-06-14T10:30:12;4.55;;;0.90;;
53145;SDS011;39042;53.150;5.898;2023-06-14T10:32:33;6.20;;;0.80;;
53145;SDS011;39042;53.150;5.898;2023-06-14T10:37:26;2.30;;;0.70;;
53145;SDS011;39042;53.150;5.898;2023-06-14T10:39:52;2.67;;;0.52;;
53145;SDS011;39042;53.150;5.898;2023-06-14T10:42:21;3.20;;;0.80;;
53145;SDS011;39042;53.150;5.898;2023-06-14T10:44:51;6.13;;;0.80;;
53145;SDS011;39042;53.150;5.898;2023-06-14T10:49:49;4.28;;;1.42;;
53145;SDS011;39042;53.150;5.898;2023-06-14T10:52:17;3.47;;;0.90;;
53145;SDS011;39042;53.150;5.898;2023-06-14T10:54:58;2.97;;;0.75;;
53145;SDS011;39042;53.150;5.898;2023-06-14T10:57:26;2.13;;;0.80;;
53145;SDS011;39042;53.150;5.898;2023-06-14T10:59:53;3.53;;;1.13;;
53145;SDS011;39042;53.150;5.898;2023-06-14T11:05:04;2.95;;;1.00;;
53145;SDS011;39042;53.150;5.898;2023-06-14T11:13:06;3.38;;;0.63;;
53145;SDS011;39042;53.150;5.898;2023-06-14T11:15:33;1.45;;;0.80;;
53145;SDS011;39042;53.150;5.898;2023-06-14T11:18:01;3.25;;;1.10;;
53145;SDS011;39042;53.150;5.898;2023-06-14T11:20:30;1.25;;;0.68;;
53145;SDS011;39042;53.150;5.898;2023-06-14T11:22:57;7.63;;;1.05;;
53145;SDS011;39042;53.150;5.898;2023-06-14T11:25:24;4.57;;;0.98;;
53145;SDS011;39042;53.150;5.898;2023-06-14T11:27:50;3.95;;;1.42;;
53145;SDS011;39042;53.150;5.898;2023-06-14T11:30:16;4.22;;;0.77;;
53145;SDS011;39042;53.150;5.898;2023-06-14T11:32:45;1.83;;;0.98;;
53145;SDS011;39042;53.150;5.898;2023-06-14T11:35:12;3.78;;;1.00;;
53145;SDS011;39042;53.150;5.898;2023-06-14T11:37:39;5.57;;;1.27;;
53145;SDS011;39042;53.150;5.898;2023-06-14T11:40:07;3.38;;;1.17;;
53145;SDS011;39042;53.150;5.898;2023-06-14T11:42:35;2.55;;;0.80;;
53145;SDS011;39042;53.150;5.898;2023-06-14T11:45:02;3.10;;;1.25;;
53145;SDS011;39042;53.150;5.898;2023-06-14T11:47:33;2.80;;;0.80;;
53145;SDS011;39042;53.150;5.898;2023-06-14T11:50:03;2.42;;;1.42;;
53145;SDS011;39042;53.150;5.898;2023-06-14T11:52:31;2.25;;;1.10;;
53145;SDS011;39042;53.150;5.898;2023-06-14T11:57:24;2.97;;;1.00;;
53145;SDS011;39042;53.150;5.898;2023-06-14T11:59:50;3.53;;;0.70;;
53145;SDS011;39042;53.150;5.898;2023-06-14T12:02:16;2.80;;;0.82;;
53145;SDS011;39042;53.150;5.898;2023-06-14T12:04:43;3.53;;;1.08;;
53145;SDS011;39042;53.150;5.898;2023-06-14T12:07:12;4.10;;;1.33;;
53145;SDS011;39042;53.150;5.898;2023-06-14T12:09:41;3.00;;;0.95;;
53145;SDS011;39042;53.150;5.898;2023-06-14T12:12:11;5.13;;;1.10;;
53145;SDS011;39042;53.150;5.898;2023-06-14T12:14:37;2.42;;;0.80;;
53145;SDS011;39042;53.150;5.898;2023-06-14T12:17:07;3.60;;;1.17;;
53145;SDS011;39042;53.150;5.898;2023-06-14T12:19:33;2.35;;;0.82;;
53145;SDS011;39042;53.150;5.898;2023-06-14T12:22:09;3.88;;;0.95;;
53145;SDS011;39042;53.150;5.898;2023-06-14T12:24:35;2.95;;;0.88;;
53145;SDS011;39042;53.150;5.898;2023-06-14T12:27:01;4.28;;;1.00;;
53145;SDS011;39042;53.150;5.898;2023-06-14T12:29:28;4.00;;;0.65;;
53145;SDS011;39042;53.150;5.898;2023-06-14T12:31:55;2.97;;;0.65;;
53145;SDS011;39042;53.150;5.898;2023-06-14T12:34:25;2.88;;;1.30;;
53145;SDS011;39042;53.150;5.898;2023-06-14T12:36:52;3.88;;;0.90;;
53145;SDS011;39042;53.150;5.898;2023-06-14T12:39:19;2.78;;;0.82;;
53145;SDS011;39042;53.150;5.898;2023-06-14T12:41:46;2.72;;;0.60;;
53145;SDS011;39042;53.150;5.898;2023-06-14T12:44:12;3.45;;;0.70;;
53145;SDS011;39042;53.150;5.898;2023-06-14T12:49:05;2.38;;;0.70;;
53145;SDS011;39042;53.150;5.898;2023-06-14T12:51:32;17.63;;;1.00;;
53145;SDS011;39042;53.150;5.898;2023-06-14T12:53:58;1.63;;;0.60;;
53145;SDS011;39042;53.150;5.898;2023-06-14T12:56:24;2.80;;;0.70;;
53145;SDS011;39042;53.150;5.898;2023-06-14T12:58:51;1.23;;;0.60;;
53145;SDS011;39042;53.150;5.898;2023-06-14T13:01:17;1.30;;;0.60;;
53145;SDS011;39042;53.150;5.898;2023-06-14T13:03:45;4.38;;;1.15;;
53145;SDS011;39042;53.150;5.898;2023-06-14T13:06:11;2.08;;;0.60;;
53145;SDS011;39042;53.150;5.898;2023-06-14T13:08:37;1.85;;;0.73;;
53145;SDS011;39042;53.150;5.898;2023-06-14T13:11:03;2.20;;;0.50;;
53145;SDS011;39042;53.150;5.898;2023-06-14T13:13:28;3.15;;;0.45;;
53145;SDS011;39042;53.150;5.898;2023-06-14T13:15:54;4.43;;;0.60;;
53145;SDS011;39042;53.150;5.898;2023-06-14T13:18:20;2.38;;;0.50;;
53145;SDS011;39042;53.150;5.898;2023-06-14T13:20:46;1.63;;;0.57;;
53145;SDS011;39042;53.150;5.898;2023-06-14T13:23:12;1.20;;;0.70;;
53145;SDS011;39042;53.150;5.898;2023-06-14T13:25:38;2.22;;;0.40;;
53145;SDS011;39042;53.150;5.898;2023-06-14T13:28:05;2.35;;;0.55;;
53145;SDS011;39042;53.150;5.898;2023-06-14T13:30:31;4.13;;;0.65;;
53145;SDS011;39042;53.150;5.898;2023-06-14T13:32:58;3.08;;;0.52;;
53145;SDS011;39042;53.150;5.898;2023-06-14T13:35:24;1.92;;;0.65;;
53145;SDS011;39042;53.150;5.898;2023-06-14T13:37:50;2.33;;;0.60;;
53145;SDS011;39042;53.150;5.898;2023-06-14T13:42:42;2.97;;;0.70;;
53145;SDS011;39042;53.150;5.898;2023-06-14T13:45:10;1.08;;;0.57;;
53145;SDS011;39042;53.150;5.898;2023-06-14T13:47:37;1.95;;;0.75;;
53145;SDS011;39042;53.150;5.898;2023-06-14T13:52:29;3.13;;;0.65;;
53145;SDS011;39042;53.150;5.898;2023-06-14T13:54:55;1.27;;;0.98;;
53145;SDS011;39042;53.150;5.898;2023-06-14T13:57:21;1.30;;;0.52;;
53145;SDS011;39042;53.150;5.898;2023-06-14T13:59:46;1.15;;;0.55;;
53145;SDS011;39042;53.150;5.898;2023-06-14T14:02:16;1.58;;;0.70;;
53145;SDS011;39042;53.150;5.898;2023-06-14T14:04:54;1.60;;;0.60;;
53145;SDS011;39042;53.150;5.898;2023-06-14T14:07:21;1.42;;;0.60;;
53145;SDS011;39042;53.150;5.898;2023-06-14T14:09:47;1.98;;;0.77;;
53145;SDS011;39042;53.150;5.898;2023-06-14T14:12:13;2.75;;;0.65;;
53145;SDS011;39042;53.150;5.898;2023-06-14T14:14:42;1.83;;;0.60;;
53145;SDS011;39042;53.150;5.898;2023-06-14T14:17:07;2.35;;;0.98;;
53145;SDS011;39042;53.150;5.898;2023-06-14T14:19:33;2.05;;;0.50;;
53145;SDS011;39042;53.150;5.898;2023-06-14T14:21:59;3.60;;;0.50;;
53145;SDS011;39042;53.150;5.898;2023-06-14T14:24:26;3.53;;;0.52;;
53145;SDS011;39042;53.150;5.898;2023-06-14T14:26:52;1.67;;;0.90;;
53145;SDS011;39042;53.150;5.898;2023-06-14T14:29:19;2.38;;;0.55;;
53145;SDS011;39042;53.150;5.898;2023-06-14T14:31:45;2.95;;;0.70;;
53145;SDS011;39042;53.150;5.898;2023-06-14T14:34:11;2.22;;;0.50;;
53145;SDS011;39042;53.150;5.898;2023-06-14T14:39:07;4.63;;;0.70;;
53145;SDS011;39042;53.150;5.898;2023-06-14T14:41:34;3.08;;;0.57;;
53145;SDS011;39042;53.150;5.898;2023-06-14T14:43:59;1.95;;;0.52;;
53145;SDS011;39042;53.150;5.898;2023-06-14T14:46:26;2.30;;;0.57;;
53145;SDS011;39042;53.150;5.898;2023-06-14T14:48:53;2.45;;;0.93;;
53145;SDS011;39042;53.150;5.898;2023-06-14T14:51:19;2.22;;;0.80;;
53145;SDS011;39042;53.150;5.898;2023-06-14T14:53:45;3.88;;;0.82;;
53145;SDS011;39042;53.150;5.898;2023-06-14T14:56:10;2.58;;;0.70;;
53145;SDS011;39042;53.150;5.898;2023-06-14T14:58:37;4.50;;;0.90;;
53145;SDS011;39042;53.150;5.898;2023-06-14T15:03:31;4.88;;;1.13;;
53145;SDS011;39042;53.150;5.898;2023-06-14T15:05:56;6.03;;;1.45;;
53145;SDS011;39042;53.150;5.898;2023-06-14T15:08:22;5.97;;;1.45;;
53145;SDS011;39042;53.150;5.898;2023-06-14T15:10:48;5.43;;;1.33;;
53145;SDS011;39042;53.150;5.898;2023-06-14T15:13:14;5.25;;;1.58;;
53145;SDS011;39042;53.150;5.898;2023-06-14T15:15:40;4.32;;;1.80;;
53145;SDS011;39042;53.150;5.898;2023-06-14T15:18:06;3.42;;;1.38;;
53145;SDS011;39042;53.150;5.898;2023-06-14T15:20:32;6.00;;;1.52;;
53145;SDS011;39042;53.150;5.898;2023-06-14T15:23:00;3.33;;;1.55;;
53145;SDS011;39042;53.150;5.898;2023-06-14T15:25:29;6.78;;;1.75;;
53145;SDS011;39042;53.150;5.898;2023-06-14T15:27:57;4.38;;;1.67;;
53145;SDS011;39042;53.150;5.898;2023-06-14T15:30:22;3.13;;;1.52;;
53145;SDS011;39042;53.150;5.898;2023-06-14T15:32:48;5.53;;;1.90;;
53145;SDS011;39042;53.150;5.898;2023-06-14T15:35:16;2.60;;;1.25;;
53145;SDS011;39042;53.150;5.898;2023-06-14T15:37:47;3.30;;;1.40;;
53145;SDS011;39042;53.150;5.898;2023-06-14T15:40:13;4.55;;;1.15;;
53145;SDS011;39042;53.150;5.898;2023-06-14T15:42:40;7.43;;;1.95;;
53145;SDS011;39042;53.150;5.898;2023-06-14T15:45:06;6.32;;;1.30;;
53145;SDS011;39042;53.150;5.898;2023-06-14T15:47:32;3.83;;;1.30;;
53145;SDS011;39042;53.150;5.898;2023-06-14T15:49:58;3.90;;;1.50;;
53145;SDS011;39042;53.150;5.898;2023-06-14T15:52:24;3.97;;;1.38;;
53145;SDS011;39042;53.150;5.898;2023-06-14T15:54:50;3.92;;;1.38;;
53145;SDS011;39042;53.150;5.898;2023-06-14T15:57:16;4.63;;;1.80;;
53145;SDS011;39042;53.150;5.898;2023-06-14T15:59:42;4.00;;;1.13;;
53145;SDS011;39042;53.150;5.898;2023-06-14T16:02:07;8.88;;;1.48;;